Time;durP1;ratioP1;P1;durP2;ratioP2;P2;SDS_P1;SDS_P2;PMS_P1;PMS_P2;Temp;Humidity;BMP_temperature;BMP_pressure;BME280_temperature;BME280_humidity;BME280_pressure;Samples;Min_cycle;Max_cycle;Signal;HPM_P1;HPM_P2
2021/06/23 00:01:01;;;;;;;4.00;1.23;;;;;;;-148.58;100.00;55229.56;5035074;28;20563;-60
2021/06/23 00:03:26;;;;;;;1.40;0.68;;;;;;;-148.58;100.00;55229.56;5035358;28;20045;-59
2021/06/23 00:05:51;;;;;;;1.73;0.85;;;;;;;-148.58;100.00;55229.56;5035174;28;20030;-59
2021/06/23 00:08:17;;;;;;;2.20;0.82;;;;;;;-148.58;100.00;55229.56;5035347;28;20063;-59
2021/06/23 00:10:43;;;;;;;1.65;0.82;;;;;;;-148.58;100.00;55229.56;5035262;28;20461;-59
2021/06/23 00:13:09;;;;;;;4.47;1.10;;;;;;;-148.58;100.00;55229.56;5035228;28;20033;-60
2021/06/23 00:15:36;;;;;;;2.00;0.80;;;;;;;-148.58;100.00;55229.56;5035239;28;20026;-60
2021/06/23 00:18:03;;;;;;;3.17;0.80;;;;;;;-148.58;100.00;55229.56;5035136;28;20145;-59
2021/06/23 00:20:28;;;;;;;0.57;0.30;;;;;;;-148.58;100.00;55229.56;5035169;28;20488;-59
2021/06/23 00:22:54;;;;;;;0.93;0.65;;;;;;;-148.58;100.00;55229.56;5034989;28;20048;-59
2021/06/23 00:25:19;;;;;;;0.45;0.20;;;;;;;-148.58;100.00;55229.56;5017218;28;20353;-59
2021/06/23 00:27:45;;;;;;;2.92;0.60;;;;;;;-148.58;100.00;55229.56;5034837;28;20149;-59
2021/06/23 00:30:11;;;;;;;1.80;0.63;;;;;;;-148.58;100.00;55229.56;5034920;28;20025;-59
2021/06/23 00:32:40;;;;;;;0.55;0.47;;;;;;;-148.58;100.00;55229.56;5034956;28;20053;-59
2021/06/23 00:35:07;;;;;;;0.68;0.60;;;;;;;-148.58;100.00;55229.56;5034746;28;20487;-59
2021/06/23 00:37:32;;;;;;;1.10;0.70;;;;;;;-148.58;100.00;55229.56;5034854;28;20033;-59
2021/06/23 00:39:57;;;;;;;1.02;0.52;;;;;;;-148.58;100.00;55229.56;5034705;28;20040;-59
2021/06/23 00:42:23;;;;;;;1.13;0.60;;;;;;;-148.58;100.00;55229.56;5035038;28;20029;-59
2021/06/23 00:44:48;;;;;;;1.70;0.73;;;;;;;-148.58;100.00;55229.56;5034555;28;20021;-59
2021/06/23 00:47:15;;;;;;;0.52;0.30;;;;;;;-148.58;100.00;55229.56;5033407;28;20113;-59
2021/06/23 00:49:40;;;;;;;1.80;0.60;;;;;;;-148.58;100.00;55229.56;5034612;28;20068;-60
2021/06/23 00:52:07;;;;;;;0.93;0.38;;;;;;;-148.58;100.00;55229.56;5034714;28;20030;-59
2021/06/23 00:54:33;;;;;;;1.02;0.30;;;;;;;-148.58;100.00;55229.56;5034536;28;20030;-59
2021/06/23 00:56:59;;;;;;;0.65;0.30;;;;;;;-148.58;100.00;55229.56;5034243;28;20511;-58
2021/06/23 00:59:25;;;;;;;1.40;0.60;;;;;;;-148.58;100.00;55229.56;5034413;28;20033;-59
2021/06/23 01:01:51;;;;;;;0.85;0.50;;;;;;;-148.58;100.00;55229.56;5034082;28;20033;-60
2021/06/23 01:04:17;;;;;;;0.93;0.68;;;;;;;-148.58;100.00;55229.56;5034370;28;20372;-59
2021/06/23 01:06:43;;;;;;;1.85;0.47;;;;;;;-148.58;100.00;55229.56;5034122;28;20519;-59
2021/06/23 01:09:08;;;;;;;1.42;0.60;;;;;;;-148.58;100.00;55229.56;5034476;28;20025;-59
2021/06/23 01:11:41;;;;;;;2.90;0.88;;;;;;;-148.58;100.00;55229.56;5034208;28;20371;-59
2021/06/23 01:14:06;;;;;;;2.97;0.98;;;;;;;-148.58;100.00;55229.56;5034090;28;20021;-59
2021/06/23 01:16:38;;;;;;;2.10;1.00;;;;;;;-148.58;100.00;55229.56;5034143;28;20128;-59
2021/06/23 01:19:10;;;;;;;3.85;0.93;;;;;;;-148.58;100.00;55229.56;5033955;28;20017;-60
2021/06/23 01:21:36;;;;;;;3.42;0.60;;;;;;;-148.58;100.00;55229.56;5034058;28;20469;-59
2021/06/23 01:24:02;;;;;;;4.47;1.02;;;;;;;-148.58;100.00;55229.56;5033790;28;20035;-60
2021/06/23 01:26:28;;;;;;;1.90;0.50;;;;;;;-148.58;100.00;55229.56;5033895;28;20460;-59
2021/06/23 01:28:53;;;;;;;0.98;0.50;;;;;;;-148.58;100.00;55229.56;5033720;28;20064;-59
2021/06/23 01:31:20;;;;;;;1.77;0.57;;;;;;;-148.58;100.00;55229.56;5033916;28;20037;-59
2021/06/23 01:33:45;;;;;;;1.48;0.60;;;;;;;-148.58;100.00;55229.56;5033651;28;20032;-59
2021/06/23 01:36:11;;;;;;;1.40;0.77;;;;;;;-148.58;100.00;55229.56;5033731;28;20017;-59
2021/06/23 01:38:36;;;;;;;2.28;0.52;;;;;;;-148.58;100.00;55229.56;5033710;28;20025;-59
2021/06/23 01:41:02;;;;;;;2.25;0.68;;;;;;;-148.58;100.00;55229.56;5033503;28;20705;-59
2021/06/23 01:43:27;;;;;;;1.48;0.40;;;;;;;-148.58;100.00;55229.56;5033961;28;20108;-59
2021/06/23 01:45:52;;;;;;;3.33;0.63;;;;;;;-148.58;100.00;55229.56;5033333;28;20461;-59
2021/06/23 01:48:21;;;;;;;1.85;0.50;;;;;;;-148.58;100.00;55229.56;5033490;28;20033;-59
2021/06/23 01:50:58;;;;;;;2.13;0.60;;;;;;;-148.58;100.00;55229.56;5033289;28;20039;-60
2021/06/23 01:53:24;;;;;;;1.63;0.68;;;;;;;-148.58;100.00;55229.56;5033794;28;20025;-59
2021/06/23 01:55:50;;;;;;;2.83;0.55;;;;;;;-148.58;100.00;55229.56;5033164;28;20023;-59
2021/06/23 01:58:17;;;;;;;1.08;0.40;;;;;;;-148.58;100.00;55229.56;5032963;28;20373;-59
2021/06/23 02:00:49;;;;;;;1.02;0.63;;;;;;;-148.58;100.00;55229.56;5033164;28;20029;-60
2021/06/23 02:03:54;;;;;;;1.35;0.60;;;;;;;-148.58;100.00;55229.56;5033117;28;20095;-59
2021/06/23 02:06:50;;;;;;;1.45;0.65;;;;;;;-148.58;100.00;55229.56;5033058;28;20033;-59
2021/06/23 02:09:33;;;;;;;1.30;0.50;;;;;;;-148.58;100.00;55229.56;5033089;28;20030;-59
2021/06/23 02:12:23;;;;;;;2.05;0.80;;;;;;;-148.58;100.00;55229.56;5032933;28;20021;-59
2021/06/23 02:14:51;;;;;;;1.00;0.50;;;;;;;-148.58;100.00;55229.56;5015090;28;20112;-59
2021/06/23 02:17:17;;;;;;;2.08;0.38;;;;;;;-148.58;100.00;55229.56;5032994;28;20112;-59
2021/06/23 02:19:45;;;;;;;2.50;0.70;;;;;;;-148.58;100.00;55229.56;5033158;28;20056;-60
2021/06/23 02:22:19;;;;;;;2.83;0.70;;;;;;;-148.58;100.00;55229.56;5032877;28;20075;-60
2021/06/23 02:24:46;;;;;;;3.63;0.70;;;;;;;-148.58;100.00;55229.56;5032764;28;20108;-60
2021/06/23 02:27:13;;;;;;;2.28;0.60;;;;;;;-148.58;100.00;55229.56;5032689;28;20056;-60
2021/06/23 02:29:40;;;;;;;1.52;0.40;;;;;;;-148.58;100.00;55229.56;5033371;28;20021;-60
2021/06/23 02:32:09;;;;;;;2.25;0.80;;;;;;;-148.58;100.00;55229.56;5032611;28;20025;-60
2021/06/23 02:34:35;;;;;;;0.95;0.55;;;;;;;-148.58;100.00;55229.56;5032798;28;20029;-60
2021/06/23 02:37:01;;;;;;;3.08;1.13;;;;;;;-148.58;100.00;55229.56;5032518;28;20077;-60
2021/06/23 02:39:26;;;;;;;3.83;1.17;;;;;;;-148.58;100.00;55229.56;5032701;28;20021;-60
2021/06/23 02:41:52;;;;;;;1.20;0.45;;;;;;;-148.58;100.00;55229.56;5032511;28;20029;-60
2021/06/23 02:44:17;;;;;;;1.48;0.32;;;;;;;-148.58;100.00;55229.56;5032604;28;20021;-60
2021/06/23 02:46:43;;;;;;;1.85;0.80;;;;;;;-148.58;100.00;55229.56;5032382;28;20033;-60
2021/06/23 02:49:08;;;;;;;0.50;0.32;;;;;;;-148.58;100.00;55229.56;5032493;28;20028;-60
2021/06/23 02:51:41;;;;;;;0.88;0.35;;;;;;;-148.58;100.00;55229.56;5032518;28;20112;-60
2021/06/23 02:54:08;;;;;;;2.72;0.50;;;;;;;-148.58;100.00;55229.56;5032405;28;20603;-60
2021/06/23 02:56:34;;;;;;;1.95;0.75;;;;;;;-148.58;100.00;55229.56;5032401;28;20097;-60
2021/06/23 02:59:01;;;;;;;1.45;0.43;;;;;;;-148.58;100.00;55229.56;5032276;28;20045;-59
2021/06/23 03:01:26;;;;;;;1.40;0.55;;;;;;;-148.58;100.00;55229.56;5032439;28;20026;-59
2021/06/23 03:03:52;;;;;;;1.30;0.50;;;;;;;-148.58;100.00;55229.56;5032103;28;20049;-60
2021/06/23 03:06:17;;;;;;;2.13;0.60;;;;;;;-148.58;100.00;55229.56;5032253;28;20029;-60
2021/06/23 03:08:44;;;;;;;1.08;0.52;;;;;;;-148.58;100.00;55229.56;5032434;28;20060;-60
2021/06/23 03:11:09;;;;;;;1.67;0.50;;;;;;;-148.58;100.00;55229.56;5034564;28;20017;-60
2021/06/23 03:13:35;;;;;;;1.90;0.45;;;;;;;-148.58;100.00;55229.56;5036388;28;20056;-60
2021/06/23 03:16:00;;;;;;;2.90;0.35;;;;;;;-148.58;100.00;55229.56;5036536;28;20025;-60
2021/06/23 03:18:29;;;;;;;1.10;0.30;;;;;;;-148.58;100.00;55229.56;5036057;28;20392;-60
2021/06/23 03:20:54;;;;;;;1.92;0.50;;;;;;;-148.58;100.00;55229.56;5036143;28;20048;-60
2021/06/23 03:23:20;;;;;;;2.05;0.70;;;;;;;-148.58;100.00;55229.56;5036274;28;20057;-59
2021/06/23 03:25:45;;;;;;;1.30;0.20;;;;;;;-148.58;100.00;55229.56;5035973;28;20539;-59
2021/06/23 03:28:11;;;;;;;0.85;0.25;;;;;;;-148.58;100.00;55229.56;5036159;28;20059;-59
2021/06/23 03:30:36;;;;;;;0.68;0.20;;;;;;;-148.58;100.00;55229.56;5036153;28;20064;-60
2021/06/23 03:33:02;;;;;;;1.10;0.40;;;;;;;-148.58;100.00;55229.56;5035926;28;20033;-59
2021/06/23 03:35:28;;;;;;;2.50;0.70;;;;;;;-148.58;100.00;55229.56;5036006;28;20053;-59
2021/06/23 03:37:54;;;;;;;2.60;0.30;;;;;;;-148.58;100.00;55229.56;5035899;28;20048;-60
2021/06/23 03:40:21;;;;;;;0.80;0.20;;;;;;;-148.58;100.00;55229.56;5036197;28;20438;-59
2021/06/23 03:42:47;;;;;;;1.08;0.35;;;;;;;-148.58;100.00;55229.56;5035635;28;20473;-59
2021/06/23 03:45:14;;;;;;;1.90;0.70;;;;;;;-148.58;100.00;55229.56;5035801;28;20040;-59
2021/06/23 03:47:40;;;;;;;1.67;0.60;;;;;;;-148.58;100.00;55229.56;5035685;28;20025;-61
2021/06/23 03:50:08;;;;;;;1.35;0.40;;;;;;;-148.58;100.00;55229.56;5035686;28;20467;-59
2021/06/23 03:52:33;;;;;;;1.88;0.50;;;;;;;-148.58;100.00;55229.56;5035688;28;20030;-59
2021/06/23 03:54:58;;;;;;;1.00;0.20;;;;;;;-148.58;100.00;55229.56;5035535;28;20033;-59
2021/06/23 03:57:24;;;;;;;1.13;0.40;;;;;;;-148.58;100.00;55229.56;5035533;28;20021;-59
2021/06/23 03:59:51;;;;;;;2.28;0.35;;;;;;;-148.58;100.00;55229.56;5035412;28;20412;-59
2021/06/23 04:02:17;;;;;;;2.40;0.82;;;;;;;-148.58;100.00;55229.56;5033948;28;20045;-59
2021/06/23 04:04:42;;;;;;;2.50;0.80;;;;;;;-148.58;100.00;55229.56;5035389;28;20162;-59
2021/06/23 04:07:07;;;;;;;0.47;0.20;;;;;;;-148.58;100.00;55229.56;5035287;28;20022;-59
2021/06/23 04:09:33;;;;;;;1.85;0.30;;;;;;;-148.58;100.00;55229.56;5035414;28;20056;-59
2021/06/23 04:11:58;;;;;;;0.25;0.20;;;;;;;-148.58;100.00;55229.56;5035142;28;20036;-59
2021/06/23 04:14:23;;;;;;;1.85;0.43;;;;;;;-148.58;100.00;55229.56;5035339;28;20029;-59
2021/06/23 04:16:48;;;;;;;1.25;0.40;;;;;;;-148.58;100.00;55229.56;5035061;28;20101;-59
2021/06/23 04:19:14;;;;;;;0.68;0.28;;;;;;;-148.58;100.00;55229.56;5035184;28;20452;-59
2021/06/23 04:21:39;;;;;;;1.85;0.47;;;;;;;-148.58;100.00;55229.56;5035044;28;20033;-59
2021/06/23 04:24:05;;;;;;;1.58;0.47;;;;;;;-148.58;100.00;55229.56;5035543;28;20017;-60
2021/06/23 04:26:30;;;;;;;2.00;0.50;;;;;;;-148.58;100.00;55229.56;5035036;28;20518;-59
2021/06/23 04:28:55;;;;;;;1.17;0.30;;;;;;;-148.58;100.00;55229.56;5034683;28;20030;-59
2021/06/23 04:31:21;;;;;;;1.10;0.20;;;;;;;-148.58;100.00;55229.56;5035025;28;20029;-59
2021/06/23 04:33:46;;;;;;;2.60;0.57;;;;;;;-148.58;100.00;55229.56;5034757;28;20032;-60
2021/06/23 04:36:12;;;;;;;1.15;0.47;;;;;;;-148.58;100.00;55229.56;5035097;28;20055;-59
2021/06/23 04:38:37;;;;;;;2.42;0.55;;;;;;;-148.58;100.00;55229.56;5035161;28;20084;-59
2021/06/23 04:41:03;;;;;;;1.17;0.43;;;;;;;-148.58;100.00;55229.56;5034650;28;20393;-59
2021/06/23 04:43:29;;;;;;;1.33;0.52;;;;;;;-148.58;100.00;55229.56;5034802;28;20021;-59
2021/06/23 04:45:54;;;;;;;2.80;0.82;;;;;;;-148.58;100.00;55229.56;5034468;28;20043;-59
2021/06/23 04:48:19;;;;;;;0.95;0.40;;;;;;;-148.58;100.00;55229.56;5034724;28;20053;-60
2021/06/23 04:50:45;;;;;;;0.82;0.40;;;;;;;-148.58;100.00;55229.56;5034485;28;20120;-59
2021/06/23 04:53:10;;;;;;;2.97;0.50;;;;;;;-148.58;100.00;55229.56;5034605;28;20048;-60
2021/06/23 04:55:35;;;;;;;3.30;0.50;;;;;;;-148.58;100.00;55229.56;5034589;28;20017;-59
2021/06/23 04:58:01;;;;;;;1.35;0.57;;;;;;;-148.58;100.00;55229.56;5034321;28;20029;-59
2021/06/23 05:00:26;;;;;;;0.70;0.40;;;;;;;-148.58;100.00;55229.56;5034485;28;20025;-60
2021/06/23 05:02:51;;;;;;;1.83;0.60;;;;;;;-148.58;100.00;55229.56;5034101;28;20049;-59
2021/06/23 05:05:17;;;;;;;1.52;0.35;;;;;;;-148.58;100.00;55229.56;5034380;28;20017;-59
2021/06/23 05:07:42;;;;;;;1.48;0.50;;;;;;;-148.58;100.00;55229.56;5034101;28;20025;-59
2021/06/23 05:10:08;;;;;;;1.02;0.43;;;;;;;-148.58;100.00;55229.56;5034191;28;20059;-60
2021/06/23 05:12:33;;;;;;;0.60;0.25;;;;;;;-148.58;100.00;55229.56;5034277;28;20056;-59
2021/06/23 05:14:58;;;;;;;0.90;0.40;;;;;;;-148.58;100.00;55229.56;5034057;28;20021;-59
2021/06/23 05:17:25;;;;;;;1.58;0.52;;;;;;;-148.58;100.00;55229.56;5034462;28;20436;-60
2021/06/23 05:19:50;;;;;;;1.55;0.40;;;;;;;-148.58;100.00;55229.56;5033913;28;20017;-59
2021/06/23 05:22:15;;;;;;;1.85;0.80;;;;;;;-148.58;100.00;55229.56;5034088;28;20041;-59
2021/06/23 05:24:42;;;;;;;2.05;0.73;;;;;;;-148.58;100.00;55229.56;5034004;28;20026;-59
2021/06/23 05:27:09;;;;;;;1.50;0.70;;;;;;;-148.58;100.00;55229.56;5033828;28;20385;-60
2021/06/23 05:29:35;;;;;;;0.57;0.30;;;;;;;-148.58;100.00;55229.56;5033988;28;20021;-60
2021/06/23 05:32:01;;;;;;;2.20;0.88;;;;;;;-148.58;100.00;55229.56;5033718;28;20033;-59
2021/06/23 05:34:28;;;;;;;2.38;0.50;;;;;;;-148.58;100.00;55229.56;5033296;28;20025;-59
2021/06/23 05:36:54;;;;;;;2.35;0.50;;;;;;;-148.58;100.00;55229.56;5020300;28;20428;-59
2021/06/23 05:39:19;;;;;;;2.13;0.93;;;;;;;-148.58;100.00;55229.56;5032973;28;20052;-59
2021/06/23 05:41:45;;;;;;;2.92;0.60;;;;;;;-148.58;100.00;55229.56;5033478;28;20112;-59
2021/06/23 05:44:10;;;;;;;1.15;0.47;;;;;;;-148.58;100.00;55229.56;5033592;28;20091;-59
2021/06/23 05:46:35;;;;;;;1.50;0.50;;;;;;;-148.58;100.00;55229.56;5033543;28;20057;-59
2021/06/23 05:49:00;;;;;;;1.33;0.30;;;;;;;-148.58;100.00;55229.56;5033647;28;20197;-60
2021/06/23 05:51:26;;;;;;;2.05;0.70;;;;;;;-148.58;100.00;55229.56;5033522;28;20048;-59
2021/06/23 05:53:51;;;;;;;0.98;0.40;;;;;;;-148.58;100.00;55229.56;5033452;28;20048;-60
2021/06/23 05:56:16;;;;;;;4.10;0.73;;;;;;;-148.58;100.00;55229.56;5033398;28;20025;-59
2021/06/23 05:58:42;;;;;;;2.08;0.55;;;;;;;-148.58;100.00;55229.56;5033287;28;20108;-60
2021/06/23 06:01:07;;;;;;;1.02;0.80;;;;;;;-148.58;100.00;55229.56;5033202;28;20025;-59
2021/06/23 06:03:33;;;;;;;1.45;0.40;;;;;;;-148.58;100.00;55229.56;5033127;28;20095;-59
2021/06/23 06:05:59;;;;;;;0.93;0.40;;;;;;;-148.58;100.00;55229.56;5032929;28;20425;-59
2021/06/23 06:08:25;;;;;;;1.23;0.50;;;;;;;-148.58;100.00;55229.56;5033220;28;20120;-59
2021/06/23 06:10:50;;;;;;;3.00;0.60;;;;;;;-148.58;100.00;55229.56;5032938;28;20062;-59
2021/06/23 06:13:15;;;;;;;0.70;0.43;;;;;;;-148.58;100.00;55229.56;5033334;28;20128;-59
2021/06/23 06:15:41;;;;;;;0.70;0.40;;;;;;;-148.58;100.00;55229.56;5032991;28;20021;-60
2021/06/23 06:18:07;;;;;;;1.75;0.47;;;;;;;-148.58;100.00;55229.56;5032959;28;20022;-60
2021/06/23 06:20:33;;;;;;;2.47;0.68;;;;;;;-148.58;100.00;55229.56;5033369;28;20068;-59
2021/06/23 06:22:59;;;;;;;1.38;0.45;;;;;;;-148.58;100.00;55229.56;5032754;28;20409;-59
2021/06/23 06:25:25;;;;;;;1.80;0.70;;;;;;;-148.58;100.00;55229.56;5033130;28;20029;-60
2021/06/23 06:27:50;;;;;;;1.63;0.88;;;;;;;-148.58;100.00;55229.56;5032064;28;20087;-59
2021/06/23 06:30:16;;;;;;;1.35;0.50;;;;;;;-148.58;100.00;55229.56;5033041;28;20110;-60
2021/06/23 06:32:41;;;;;;;1.70;0.60;;;;;;;-148.58;100.00;55229.56;5033329;28;20049;-61
2021/06/23 06:35:07;;;;;;;3.35;0.93;;;;;;;-148.58;100.00;55229.56;5032447;28;20492;-60
2021/06/23 06:37:33;;;;;;;1.50;0.55;;;;;;;-148.58;100.00;55229.56;5024362;28;20050;-60
2021/06/23 06:39:58;;;;;;;2.13;0.55;;;;;;;-148.58;100.00;55229.56;5014462;28;20040;-61
2021/06/23 06:42:23;;;;;;;1.77;0.52;;;;;;;-148.58;100.00;55229.56;5020461;28;20036;-60
2021/06/23 06:44:49;;;;;;;1.50;0.40;;;;;;;-148.58;100.00;55229.56;5021553;28;20036;-60
2021/06/23 06:47:14;;;;;;;2.25;0.57;;;;;;;-148.58;100.00;55229.56;5021701;28;20033;-60
2021/06/23 06:49:39;;;;;;;1.25;0.40;;;;;;;-148.58;100.00;55229.56;5024876;28;20362;-61
2021/06/23 06:52:05;;;;;;;2.72;0.90;;;;;;;-148.58;100.00;55229.56;5030984;28;20033;-60
2021/06/23 06:54:30;;;;;;;2.15;0.40;;;;;;;-148.58;100.00;55229.56;5016937;28;20450;-61
2021/06/23 06:56:56;;;;;;;1.75;0.40;;;;;;;-148.58;100.00;55229.56;5024907;28;20021;-60
2021/06/23 06:59:22;;;;;;;0.80;0.32;;;;;;;-148.58;100.00;55229.56;5030125;28;20034;-60
2021/06/23 07:01:48;;;;;;;2.80;0.57;;;;;;;-148.58;100.00;55229.56;5030052;28;20029;-60
2021/06/23 07:04:15;;;;;;;2.28;0.90;;;;;;;-148.58;100.00;55229.56;5030571;28;20349;-61
2021/06/23 07:06:44;;;;;;;0.60;0.30;;;;;;;-148.58;100.00;55229.56;5028748;28;20022;-60
2021/06/23 07:09:09;;;;;;;1.88;0.52;;;;;;;-148.58;100.00;55229.56;5024752;28;20029;-60
2021/06/23 07:11:35;;;;;;;1.65;0.50;;;;;;;-148.58;100.00;55229.56;5025520;28;20075;-60
2021/06/23 07:14:01;;;;;;;1.92;0.80;;;;;;;-148.58;100.00;55229.56;5031570;28;20025;-59
2021/06/23 07:16:26;;;;;;;0.70;0.43;;;;;;;-148.58;100.00;55229.56;5029547;28;20464;-60
2021/06/23 07:18:52;;;;;;;1.13;0.47;;;;;;;-148.58;100.00;55229.56;5015772;28;20431;-60
2021/06/23 07:21:18;;;;;;;1.65;0.30;;;;;;;-148.58;100.00;55229.56;5010048;28;20069;-60
2021/06/23 07:23:44;;;;;;;1.58;0.40;;;;;;;-148.58;100.00;55229.56;5011156;28;20405;-60
2021/06/23 07:26:10;;;;;;;1.70;0.80;;;;;;;-148.58;100.00;55229.56;5012103;28;20021;-60
2021/06/23 07:31:08;;;;;;;1.17;0.40;;;;;;;-148.58;100.00;55229.56;5031190;28;20034;-60
2021/06/23 07:33:34;;;;;;;2.00;0.45;;;;;;;-148.58;100.00;55229.56;5030017;28;20048;-60
2021/06/23 07:38:43;;;;;;;1.80;0.50;;;;;;;-148.58;100.00;55229.56;5012440;28;20036;-60
2021/06/23 07:41:08;;;;;;;0.90;0.38;;;;;;;-148.58;100.00;55229.56;5012041;28;20029;-60
2021/06/23 07:43:35;;;;;;;2.17;0.60;;;;;;;-148.58;100.00;55229.56;5012272;28;20109;-60
2021/06/23 07:46:02;;;;;;;2.05;0.40;;;;;;;-148.58;100.00;55229.56;5023851;28;20034;-60
2021/06/23 07:48:37;;;;;;;1.63;0.75;;;;;;;-148.58;100.00;55229.56;5030382;28;20514;-60
2021/06/23 07:51:08;;;;;;;2.33;0.40;;;;;;;-148.58;100.00;55229.56;5011879;28;20392;-61
2021/06/23 08:10:09;;;;;;;2.05;0.65;;;;;;;-148.58;100.00;55229.56;5034507;28;20091;-60
2021/06/23 08:15:06;;;;;;;1.48;0.50;;;;;;;-148.58;100.00;55229.56;5028950;28;20029;-60
2021/06/23 08:17:31;;;;;;;0.63;0.40;;;;;;;-148.58;100.00;55229.56;5026685;28;20068;-60
2021/06/23 08:19:56;;;;;;;1.98;0.35;;;;;;;-148.58;100.00;55229.56;5015212;28;20369;-60
2021/06/23 08:22:22;;;;;;;1.83;0.50;;;;;;;-148.58;100.00;55229.56;5029271;28;20037;-60
2021/06/23 08:24:47;;;;;;;2.22;0.60;;;;;;;-148.58;100.00;55229.56;5034855;28;20377;-60
2021/06/23 08:27:12;;;;;;;1.65;0.50;;;;;;;-148.58;100.00;55229.56;5028588;28;20022;-60
2021/06/23 08:29:38;;;;;;;2.15;0.60;;;;;;;-148.58;100.00;55229.56;5024087;28;20376;-60
2021/06/23 08:32:03;;;;;;;2.33;0.63;;;;;;;-148.58;100.00;55229.56;5025666;28;20557;-60
2021/06/23 08:34:29;;;;;;;1.45;0.40;;;;;;;-148.58;100.00;55229.56;5023364;28;20448;-59
2021/06/23 08:36:55;;;;;;;1.42;0.52;;;;;;;-148.58;100.00;55229.56;5025546;28;20435;-61
2021/06/23 08:39:20;;;;;;;0.63;0.20;;;;;;;-148.58;100.00;55229.56;5025173;28;20064;-60
2021/06/23 08:41:46;;;;;;;1.88;0.85;;;;;;;-148.58;100.00;55229.56;5026447;28;20061;-59
2021/06/23 08:44:11;;;;;;;1.48;0.30;;;;;;;-148.58;100.00;55229.56;5021505;28;20428;-60
2021/06/23 08:46:38;;;;;;;3.17;0.70;;;;;;;-148.58;100.00;55229.56;5032518;28;20025;-61
2021/06/23 08:49:05;;;;;;;3.65;1.02;;;;;;;-148.58;100.00;55229.56;5037527;28;20116;-58
2021/06/23 08:51:31;;;;;;;3.03;0.57;;;;;;;-148.58;100.00;55229.56;5025774;28;20040;-58
2021/06/23 08:53:56;;;;;;;2.95;0.70;;;;;;;-148.58;100.00;55229.56;5024419;28;20031;-59
2021/06/23 08:56:22;;;;;;;2.20;0.70;;;;;;;-148.58;100.00;55229.56;5021617;28;20403;-60
2021/06/23 08:58:47;;;;;;;1.17;0.63;;;;;;;-148.58;100.00;55229.56;5031997;28;20026;-60
2021/06/23 09:01:13;;;;;;;2.92;0.65;;;;;;;-148.58;100.00;55229.56;5030481;28;20021;-60
2021/06/23 09:04:10;;;;;;;1.10;0.57;;;;;;;-148.58;100.00;55229.56;5012700;28;20058;-61
2021/06/23 09:06:56;;;;;;;0.50;0.20;;;;;;;-148.58;100.00;55229.56;5016345;28;20088;-61
2021/06/23 09:09:26;;;;;;;1.05;0.50;;;;;;;-148.58;100.00;55229.56;5026273;28;20033;-61
2021/06/23 09:11:55;;;;;;;3.47;0.73;;;;;;;-148.58;100.00;55229.56;5022805;28;20050;-64
2021/06/23 09:14:23;;;;;;;1.25;0.60;;;;;;;-148.58;100.00;55229.56;5031198;28;20029;-63
2021/06/23 09:17:08;;;;;;;1.35;0.45;;;;;;;-148.58;100.00;55229.56;5037332;28;20025;-60
2021/06/23 09:19:40;;;;;;;4.22;0.70;;;;;;;-148.58;100.00;55229.56;5020016;28;20052;-62
2021/06/23 09:22:30;;;;;;;3.40;0.20;;;;;;;-148.58;100.00;55229.56;5026045;28;20036;-59
2021/06/23 09:24:56;;;;;;;1.25;0.60;;;;;;;-148.58;100.00;55229.56;5029924;28;20040;-61
2021/06/23 09:27:24;;;;;;;3.03;0.50;;;;;;;-148.58;100.00;55229.56;5027527;28;20042;-61
2021/06/23 09:29:52;;;;;;;1.80;0.52;;;;;;;-148.58;100.00;55229.56;5033623;28;20033;-64
2021/06/23 09:32:19;;;;;;;3.08;0.25;;;;;;;-148.58;100.00;55229.56;5029107;28;20048;-63
2021/06/23 09:34:48;;;;;;;1.33;0.30;;;;;;;-148.58;100.00;55229.56;5020791;28;20033;-66
2021/06/23 09:37:33;;;;;;;1.35;0.47;;;;;;;-148.58;100.00;55229.56;5023499;28;20041;-64
2021/06/23 09:40:12;;;;;;;1.35;0.30;;;;;;;-148.58;100.00;55229.56;5017120;28;20491;-64
2021/06/23 09:42:56;;;;;;;1.15;0.55;;;;;;;-148.58;100.00;55229.56;5027938;28;20034;-63
2021/06/23 09:45:22;;;;;;;1.20;0.40;;;;;;;-148.58;100.00;55229.56;5017876;28;20479;-62
2021/06/23 09:47:49;;;;;;;1.48;0.47;;;;;;;-148.58;100.00;55229.56;5032611;28;20033;-64
2021/06/23 09:50:23;;;;;;;0.98;0.50;;;;;;;-148.58;100.00;55229.56;5018471;28;20602;-64
2021/06/23 09:53:05;;;;;;;1.15;0.38;;;;;;;-148.58;100.00;55229.56;5003614;28;20056;-64
2021/06/23 09:55:39;;;;;;;2.53;0.60;;;;;;;-148.58;100.00;55229.56;5030866;28;20072;-62
2021/06/23 09:58:06;;;;;;;2.90;0.47;;;;;;;-148.58;100.00;55229.56;4997956;28;20436;-63
2021/06/23 10:00:33;;;;;;;3.13;0.55;;;;;;;-148.58;100.00;55229.56;5019564;28;20025;-63
2021/06/23 10:03:03;;;;;;;1.60;0.32;;;;;;;-148.58;100.00;55229.56;5032796;28;20041;-63
2021/06/23 10:05:29;;;;;;;4.95;0.30;;;;;;;-148.58;100.00;55229.56;5023344;28;20026;-64
2021/06/23 10:07:54;;;;;;;2.85;0.20;;;;;;;-148.58;100.00;55229.56;5029644;28;20028;-63
2021/06/23 10:10:40;;;;;;;1.17;0.30;;;;;;;-148.58;100.00;55229.56;5031913;28;20035;-65
2021/06/23 10:13:05;;;;;;;0.75;0.28;;;;;;;-148.58;100.00;55229.56;5031709;28;20029;-64
2021/06/23 10:15:31;;;;;;;2.35;0.55;;;;;;;-148.58;100.00;55229.56;5032258;28;20634;-65
2021/06/23 10:17:57;;;;;;;2.13;0.30;;;;;;;-148.58;100.00;55229.56;5032527;28;20025;-66
2021/06/23 10:20:23;;;;;;;1.00;0.40;;;;;;;-148.58;100.00;55229.56;5033257;28;20051;-66
2021/06/23 10:22:49;;;;;;;1.10;0.30;;;;;;;-148.58;100.00;55229.56;5033564;28;20071;-67
2021/06/23 10:25:16;;;;;;;0.40;0.25;;;;;;;-148.58;100.00;55229.56;5031107;28;20495;-67
2021/06/23 10:27:49;;;;;;;0.93;0.30;;;;;;;-148.58;100.00;55229.56;5046737;28;20056;-66
2021/06/23 10:30:15;;;;;;;0.65;0.30;;;;;;;-148.58;100.00;55229.56;5033638;28;20049;-67
2021/06/23 10:32:41;;;;;;;1.30;0.60;;;;;;;-148.58;100.00;55229.56;5027413;28;20041;-66
2021/06/23 10:35:07;;;;;;;2.85;0.52;;;;;;;-148.58;100.00;55229.56;5030428;28;20101;-65
2021/06/23 10:37:36;;;;;;;0.73;0.30;;;;;;;-148.58;100.00;55229.56;5033273;28;20063;-65
2021/06/23 10:40:05;;;;;;;1.80;0.60;;;;;;;-148.58;100.00;55229.56;5033497;28;20030;-66
2021/06/23 10:42:32;;;;;;;0.88;0.45;;;;;;;-148.58;100.00;55229.56;5033205;28;20081;-65
2021/06/23 10:44:57;;;;;;;1.40;0.40;;;;;;;-148.58;100.00;55229.56;5033208;28;20056;-66
2021/06/23 10:47:41;;;;;;;1.13;0.40;;;;;;;-148.58;100.00;55229.56;5033005;28;20122;-66
2021/06/23 10:50:10;;;;;;;1.80;0.47;;;;;;;-148.58;100.00;55229.56;5032814;28;20044;-67
2021/06/23 10:52:41;;;;;;;1.20;0.52;;;;;;;-148.58;100.00;55229.56;5031481;28;20025;-68
2021/06/23 10:55:13;;;;;;;0.98;0.40;;;;;;;-148.58;100.00;55229.56;5031697;28;20056;-66
2021/06/23 10:57:41;;;;;;;2.72;0.50;;;;;;;-148.58;100.00;55229.56;5029771;28;20532;-66
2021/06/23 11:00:18;;;;;;;0.98;0.38;;;;;;;-148.58;100.00;55229.56;5030761;28;20036;-66
2021/06/23 11:02:50;;;;;;;1.58;0.40;;;;;;;-148.58;100.00;55229.56;5031924;28;20500;-66
2021/06/23 11:05:17;;;;;;;0.85;0.52;;;;;;;-148.58;100.00;55229.56;5031138;28;20472;-66
2021/06/23 11:07:50;;;;;;;1.40;0.38;;;;;;;-148.58;100.00;55229.56;5021582;28;20100;-65
2021/06/23 11:10:16;;;;;;;2.45;0.70;;;;;;;-148.58;100.00;55229.56;5032742;28;20104;-65
2021/06/23 11:12:50;;;;;;;1.08;0.60;;;;;;;-148.58;100.00;55229.56;5032656;28;20178;-66
2021/06/23 11:15:18;;;;;;;;;;;;;;;-148.58;100.00;55229.56;5032373;28;20021;-66
2021/06/23 11:17:45;;;;;;;1.10;0.30;;;;;;;-148.58;100.00;55229.56;5032503;28;19948;-66
2021/06/23 11:20:20;;;;;;;1.52;0.40;;;;;;;-148.58;100.00;55229.56;5032419;28;20033;-68
2021/06/23 11:22:56;;;;;;;1.90;0.50;;;;;;;-148.58;100.00;55229.56;5031150;28;20025;-67
2021/06/23 11:25:33;;;;;;;1.70;0.68;;;;;;;-148.58;100.00;55229.56;5031916;28;20128;-66
2021/06/23 11:28:08;;;;;;;1.50;0.52;;;;;;;-148.58;100.00;55229.56;5028520;28;20112;-64
2021/06/23 11:30:55;;;;;;;1.40;0.30;;;;;;;-148.58;100.00;55229.56;5030986;28;20033;-60
2021/06/23 11:33:26;;;;;;;1.77;0.50;;;;;;;-148.58;100.00;55229.56;5034704;28;20021;-61
2021/06/23 11:35:54;;;;;;;1.35;0.63;;;;;;;-148.58;100.00;55229.56;5026344;28;20034;-60